createdAt,value
2022-12-17T00:00:38.637Z,4086.2
2022-12-17T00:06:14.034Z,4088.3
2022-12-17T00:11:49.159Z,4086.8
2022-12-17T00:17:24.227Z,4089.8
2022-12-17T00:22:59.530Z,4089.2
2022-12-17T00:28:39.949Z,4089.2
2022-12-17T00:34:16.060Z,4086.3
2022-12-17T00:40:00.783Z,4088.3
2022-12-17T00:45:37.369Z,4087.5
2022-12-17T00:51:14.230Z,4086.8
2022-12-17T00:56:52.332Z,4089.5
2022-12-17T01:02:29.483Z,4084.5
2022-12-17T01:08:04.965Z,4085.5
2022-12-17T01:13:41.384Z,4088.2
2022-12-17T01:19:17.478Z,4086.2
2022-12-17T01:24:56.593Z,4086.2
2022-12-17T01:30:31.676Z,4083.1
2022-12-17T01:36:06.456Z,4086.2
2022-12-17T01:41:42.857Z,4088.5
2022-12-17T01:47:40.764Z,4076.8
2022-12-17T01:53:13.238Z,4084
2022-12-17T01:58:49.134Z,4083.1
2022-12-17T02:04:24.636Z,4084.2
2022-12-17T02:09:59.697Z,4083.3
2022-12-17T02:15:34.507Z,4086.8
2022-12-17T02:21:10.194Z,4084.2
2022-12-17T02:26:45.681Z,4082.1
2022-12-17T02:32:20.948Z,4084.8
2022-12-17T02:37:56.134Z,4083.8
2022-12-17T02:43:31.579Z,4078.5
2022-12-17T02:49:29.042Z,4080.6
2022-12-17T02:55:03.494Z,4082.5
2022-12-17T03:00:38.436Z,4079.6
2022-12-17T03:06:13.533Z,4080.8
2022-12-17T03:11:49.022Z,4081.8
2022-12-17T03:17:24.774Z,4080.3
2022-12-17T03:22:59.663Z,4080.3
2022-12-17T03:28:35.003Z,4079
2022-12-17T03:34:10.841Z,4082
2022-12-17T03:39:46.055Z,4078.8
2022-12-17T03:45:21.954Z,4079.5
2022-12-17T03:50:57.110Z,4078.1
2022-12-17T03:56:31.894Z,4079.5
2022-12-17T04:02:09.290Z,4078
2022-12-17T04:07:44.673Z,4073.8
2022-12-17T04:13:20.108Z,4077.6
2022-12-17T04:18:56.261Z,4075.3
2022-12-17T04:24:31.407Z,4076.6
2022-12-17T04:30:07.158Z,4076.4
2022-12-17T04:35:44.329Z,4075.1
2022-12-17T04:41:20.386Z,4078
2022-12-17T04:47:17.344Z,4072.4
2022-12-17T04:52:50.365Z,4073.4
2022-12-17T04:58:26.536Z,4075.3
2022-12-17T05:04:02.601Z,4074.6
2022-12-17T05:09:38.697Z,4072.1
2022-12-17T05:15:14.483Z,4075.8
2022-12-17T05:20:49.736Z,4072.6
2022-12-17T05:26:24.876Z,4073.4
2022-12-17T05:31:59.692Z,4073.1
2022-12-17T05:37:35.076Z,4070.9
2022-12-17T05:43:14.365Z,4073.1
2022-12-17T05:49:11.218Z,4069.4
2022-12-17T05:54:44.346Z,4069.6
2022-12-17T06:00:20.247Z,4071.4
2022-12-17T06:05:55.649Z,4069.4
2022-12-17T06:11:30.988Z,4070.6
2022-12-17T06:17:06.324Z,4073.3
2022-12-17T06:22:41.237Z,4070.8
2022-12-17T06:28:16.272Z,4073.3
2022-12-17T06:33:52.724Z,4072.9
2022-12-17T06:39:27.932Z,4067.9
2022-12-17T06:45:08.111Z,4069.2
2022-12-17T06:50:43.651Z,4069.2
2022-12-17T06:56:19.623Z,4071.9
2022-12-17T07:01:56.536Z,4065.9
2022-12-17T07:07:32.992Z,4069.1
2022-12-17T07:13:08.854Z,4068.7
2022-12-17T07:18:43.788Z,4067.4
2022-12-17T07:24:18.541Z,4065.2
2022-12-17T07:29:53.646Z,4069.4
2022-12-17T07:35:28.894Z,4067.2
2022-12-17T07:41:03.901Z,4066.4
2022-12-17T07:47:01.140Z,4066.4
2022-12-17T07:52:33.910Z,4068.1
2022-12-17T07:58:08.971Z,4066.2
2022-12-17T08:03:46.987Z,4066.7
2022-12-17T08:09:22.441Z,4067.4
2022-12-17T08:14:59.000Z,4065.1
2022-12-17T08:20:34.212Z,4065.7
2022-12-17T08:26:09.521Z,4066.1
2022-12-17T08:31:44.384Z,4069.1
2022-12-17T08:37:19.258Z,4065.7
2022-12-17T08:42:55.561Z,4066.6
2022-12-17T08:48:52.589Z,4060
2022-12-17T08:54:25.183Z,4066.1
2022-12-17T09:00:00.084Z,4061.5
2022-12-17T09:05:35.540Z,4065.9
2022-12-17T09:11:10.631Z,4064.9
2022-12-17T09:16:54.317Z,4070.4
2022-12-17T09:22:30.106Z,4072.6
2022-12-17T09:28:05.259Z,4072.4
2022-12-17T09:33:41.611Z,4074.4
2022-12-17T09:39:17.493Z,4077.3
2022-12-17T09:44:52.959Z,4081.8
2022-12-17T09:50:27.886Z,4074.9
2022-12-17T09:56:03.468Z,4079.6
2022-12-17T10:01:40.282Z,4085.5
2022-12-17T10:07:16.523Z,4085
2022-12-17T10:12:51.728Z,4079.5
2022-12-17T10:18:27.917Z,4086
2022-12-17T10:24:03.999Z,4086.7
2022-12-17T10:29:49.560Z,4087.8
2022-12-17T10:35:24.412Z,4086.5
2022-12-17T10:41:00.630Z,4093
2022-12-17T10:46:57.364Z,4084.8
2022-12-17T10:52:30.085Z,4087.8
2022-12-17T10:58:06.095Z,4091.7
2022-12-17T11:03:43.142Z,4092.7
2022-12-17T11:09:18.600Z,4091.4
2022-12-17T11:14:53.881Z,4108.4
2022-12-17T11:20:29.418Z,4107.6
2022-12-17T11:26:04.442Z,4126.7
2022-12-17T11:31:41.390Z,4210.4
2022-12-17T11:37:16.884Z,4225.9
2022-12-17T11:42:51.893Z,4165.2
2022-12-17T11:48:27.144Z,4214.5
2022-12-17T11:54:02.603Z,4152
2022-12-17T11:59:38.699Z,4158
2022-12-17T12:05:13.640Z,4189.7
2022-12-17T12:10:49.181Z,4189.7
2022-12-17T12:16:26.036Z,4193.5
2022-12-17T12:22:01.107Z,4194.7
2022-12-17T12:27:44.285Z,4194
2022-12-17T12:33:19.926Z,4197
2022-12-17T12:38:55.176Z,4195.9
2022-12-17T12:44:30.412Z,4189.2
2022-12-17T12:50:05.604Z,4174.4
2022-12-17T12:55:40.695Z,4175.3
2022-12-17T13:01:18.388Z,4180.6
2022-12-17T13:06:55.375Z,4198.4
2022-12-17T13:12:37.740Z,4186
2022-12-17T13:18:13.968Z,4171.1
2022-12-17T13:23:48.890Z,4169.2
2022-12-17T13:29:25.523Z,4183.3
2022-12-17T13:35:10.826Z,4177.6
2022-12-17T13:40:46.040Z,4191.4
2022-12-17T13:46:49.005Z,4202.6
2022-12-17T13:52:21.912Z,4176.6
2022-12-17T13:57:57.012Z,4187.3
2022-12-17T14:04:11.491Z,4206.9
2022-12-17T14:09:47.254Z,4194.9
2022-12-17T14:15:22.131Z,4175.8
2022-12-17T14:20:57.188Z,4186.3
2022-12-17T14:26:33.294Z,4189.5
2022-12-17T14:32:09.409Z,4159.9
2022-12-17T14:37:44.435Z,4154.3
2022-12-17T14:43:19.347Z,4159.7
2022-12-17T14:48:54.945Z,4152.5
2022-12-17T14:54:30.010Z,4154.2
2022-12-17T15:00:05.188Z,4155.8
2022-12-17T15:05:40.050Z,4153.5
2022-12-17T15:11:14.713Z,4149.6
2022-12-17T15:16:51.625Z,4151.2
2022-12-17T15:22:26.540Z,4149.6
2022-12-17T15:28:01.359Z,4148.3
2022-12-17T15:33:37.492Z,4147.6
2022-12-17T15:39:12.530Z,4144.5
2022-12-17T15:44:51.616Z,4140.4
2022-12-17T15:50:26.708Z,4139.9
2022-12-17T15:56:02.104Z,4138.3
2022-12-17T16:01:42.035Z,4135.7
2022-12-17T16:07:17.307Z,4138.3
2022-12-17T16:12:52.046Z,4137.9
2022-12-17T16:18:26.848Z,4131.9
2022-12-17T16:24:02.420Z,4138.1
2022-12-17T16:29:37.855Z,4131.9
2022-12-17T16:35:13.107Z,4133.2
2022-12-17T16:40:48.213Z,4132.1
2022-12-17T16:46:23.961Z,4133.6
2022-12-17T16:51:58.886Z,4129.7
2022-12-17T16:57:34.296Z,4128.9
2022-12-17T17:03:11.865Z,4127.9
2022-12-17T17:08:47.054Z,4129.9
2022-12-17T17:14:22.241Z,4127
2022-12-17T17:19:57.323Z,4126.2
2022-12-17T17:25:59.889Z,4129.7
2022-12-17T17:32:15.373Z,4124.2
2022-12-17T17:37:55.032Z,4123.5
2022-12-17T17:43:37.685Z,4122.2
2022-12-17T17:49:13.075Z,4123.7
2022-12-17T17:54:49.144Z,4127.7
2022-12-17T18:00:25.341Z,4119
2022-12-17T18:06:00.159Z,4122.5
2022-12-17T18:11:35.790Z,4121.3
2022-12-17T18:17:11.209Z,4122
2022-12-17T18:22:48.055Z,4119.2
2022-12-17T18:28:23.689Z,4118.7
2022-12-17T18:34:09.093Z,4121
2022-12-17T18:39:44.904Z,4117.7
2022-12-17T18:45:20.466Z,4117.1
2022-12-17T18:51:03.557Z,4116.1
2022-12-17T18:57:03.950Z,4118.8
2022-12-17T19:02:41.590Z,4114.6
2022-12-17T19:08:16.756Z,4115.3
2022-12-17T19:13:52.050Z,4118.2
2022-12-17T19:19:27.437Z,4118.8
2022-12-17T19:25:03.064Z,4119.2
2022-12-17T19:30:38.205Z,4118.5
2022-12-17T19:36:13.427Z,4118
2022-12-17T19:41:48.558Z,4119.5
2022-12-17T19:47:23.986Z,4118
2022-12-17T19:52:59.084Z,4116.6
2022-12-17T19:58:34.139Z,4115.6
2022-12-17T20:04:13.763Z,4117.5
2022-12-17T20:09:50.064Z,4117.8
2022-12-17T20:15:46.795Z,4115.3
2022-12-17T20:21:22.680Z,4116.6
2022-12-17T20:26:57.867Z,4115.8
2022-12-17T20:32:33.718Z,4115.8
2022-12-17T20:38:10.980Z,4113.3
2022-12-17T20:43:49.445Z,4115.1
2022-12-17T20:49:26.175Z,4116.8
2022-12-17T20:55:01.543Z,4116.6
2022-12-17T21:00:37.879Z,4113.6
2022-12-17T21:06:13.363Z,4116.8
2022-12-17T21:11:49.465Z,4115
2022-12-17T21:17:25.653Z,4113.3
2022-12-17T21:23:01.470Z,4113.6
2022-12-17T21:28:41.740Z,4112.1
2022-12-17T21:34:17.802Z,4110.6
2022-12-17T21:40:01.286Z,4107.4
2022-12-17T21:45:38.280Z,4113
2022-12-17T21:51:15.857Z,4110.1
2022-12-17T21:56:51.705Z,4112.3
2022-12-17T22:02:29.158Z,4112.3
2022-12-17T22:08:08.100Z,4108.3
2022-12-17T22:13:43.959Z,4110.8
2022-12-17T22:19:24.284Z,4107.9
2022-12-17T22:25:14.180Z,4108.9
2022-12-17T22:30:58.023Z,4108.3
2022-12-17T22:45:11.813Z,4109.3
2022-12-17T22:51:43.340Z,4102.4
2022-12-17T22:57:41.646Z,4104.3
2022-12-17T23:03:18.729Z,4103.1
2022-12-17T23:08:55.032Z,4103.9
2022-12-17T23:14:29.824Z,4102.2
2022-12-17T23:20:05.278Z,4103.9
2022-12-17T23:25:49.417Z,4099.6
2022-12-17T23:31:25.482Z,4102.2
2022-12-17T23:37:02.110Z,4097.2
2022-12-17T23:42:44.528Z,4105.1
2022-12-17T23:48:22.496Z,4100.9
2022-12-17T23:53:58.661Z,4100.2
2022-12-17T23:59:39.834Z,4097.6
